createdAt,value
2023-02-18T00:00:31.906Z,47.80
2023-02-18T00:01:34.534Z,49.30
2023-02-18T00:02:36.944Z,57.10
2023-02-18T00:03:40.439Z,57.20
2023-02-18T00:04:43.001Z,57.30
2023-02-18T00:05:45.257Z,59.60
2023-02-18T00:06:48.188Z,52.70
2023-02-18T00:07:50.537Z,57.50
2023-02-18T00:08:53.978Z,39.50
2023-02-18T00:09:56.309Z,46.20
2023-02-18T00:10:58.785Z,53.90
2023-02-18T00:12:01.637Z,60.40
2023-02-18T00:13:03.989Z,57.00
2023-02-18T00:14:10.244Z,57.90
2023-02-18T00:15:13.838Z,58.10
2023-02-18T00:16:17.478Z,59.10
2023-02-18T00:17:19.821Z,61.00
2023-02-18T00:18:24.983Z,53.90
2023-02-18T00:19:28.541Z,61.27
2023-02-18T00:20:33.046Z,60.00
2023-02-18T00:21:36.624Z,62.70
2023-02-18T00:22:39.060Z,52.45
2023-02-18T00:23:44.010Z,55.80
2023-02-18T00:24:46.548Z,58.80
2023-02-18T00:25:48.892Z,61.90
2023-02-18T00:26:52.333Z,59.30
2023-02-18T00:27:55.112Z,55.70
2023-02-18T00:28:57.466Z,61.40
2023-02-18T00:29:59.942Z,55.80
2023-02-18T00:31:11.303Z,61.80
2023-02-18T00:32:13.631Z,54.80
2023-02-18T00:33:15.924Z,49.90
2023-02-18T00:34:18.388Z,55.40
2023-02-18T00:35:20.735Z,62.70
2023-02-18T00:36:25.245Z,61.80
2023-02-18T00:37:28.220Z,57.00
2023-02-18T00:38:31.353Z,62.20
2023-02-18T00:39:34.443Z,59.09
2023-02-18T00:40:38.259Z,62.00
2023-02-18T00:41:43.940Z,62.70
2023-02-18T00:42:46.379Z,57.40
2023-02-18T00:43:49.898Z,60.00
2023-02-18T00:44:54.097Z,59.00
2023-02-18T00:45:56.883Z,60.90
2023-02-18T00:46:59.130Z,62.00
2023-02-18T00:48:01.550Z,63.60
2023-02-18T00:49:05.691Z,54.70
2023-02-18T00:50:09.752Z,66.60
2023-02-18T00:51:12.848Z,64.90
2023-02-18T00:52:15.397Z,61.60
2023-02-18T00:53:17.857Z,63.90
2023-02-18T00:54:21.952Z,62.20
2023-02-18T00:55:25.174Z,63.10
2023-02-18T00:56:28.059Z,53.70
2023-02-18T00:57:30.546Z,66.30
2023-02-18T00:58:34.762Z,62.70
2023-02-18T00:59:39.076Z,62.30
2023-02-18T01:00:41.969Z,71.40
2023-02-18T01:01:44.975Z,63.40
2023-02-18T01:02:48.926Z,63.82
2023-02-18T01:03:52.191Z,48.40
2023-02-18T01:04:54.738Z,68.50
2023-02-18T01:05:57.279Z,69.40
2023-02-18T01:07:01.191Z,57.70
2023-02-18T01:08:05.724Z,57.60
2023-02-18T01:09:08.460Z,62.00
2023-02-18T01:10:12.431Z,63.00
2023-02-18T01:11:14.870Z,68.10
2023-02-18T01:12:17.667Z,69.60
2023-02-18T01:13:20.649Z,66.20
2023-02-18T01:14:23.093Z,66.18
2023-02-18T01:15:25.804Z,65.90
2023-02-18T01:16:28.635Z,62.90
2023-02-18T01:17:31.183Z,62.20
2023-02-18T01:18:33.684Z,62.60
2023-02-18T01:19:36.012Z,62.10
2023-02-18T01:20:40.624Z,62.30
2023-02-18T01:21:43.289Z,59.30
2023-02-18T01:22:46.156Z,60.50
2023-02-18T01:23:48.549Z,67.20
2023-02-18T01:24:51.775Z,58.09
2023-02-18T01:25:55.533Z,67.50
2023-02-18T01:26:58.007Z,62.90
2023-02-18T01:28:00.436Z,46.40
2023-02-18T01:29:04.574Z,54.00
2023-02-18T01:30:09.792Z,66.20
2023-02-18T01:31:14.424Z,52.40
2023-02-18T01:32:17.431Z,68.70
2023-02-18T01:33:20.911Z,62.10
2023-02-18T01:34:23.263Z,64.50
2023-02-18T01:35:26.885Z,54.90
2023-02-18T01:36:31.124Z,60.90
2023-02-18T01:37:34.301Z,67.30
2023-02-18T01:38:37.723Z,61.60
2023-02-18T01:39:40.380Z,64.50
2023-02-18T01:40:50.818Z,61.40
2023-02-18T01:41:53.291Z,60.50
2023-02-18T01:42:56.320Z,61.90
2023-02-18T01:44:13.506Z,65.20
2023-02-18T01:45:37.696Z,60.10
2023-02-18T01:46:42.469Z,62.70
2023-02-18T01:47:44.841Z,61.90
2023-02-18T01:49:01.154Z,53.00
2023-02-18T01:50:04.031Z,58.00
2023-02-18T01:51:15.814Z,53.90
2023-02-18T01:52:21.677Z,55.80
2023-02-18T01:53:27.644Z,55.80
2023-02-18T01:54:33.682Z,62.30
2023-02-18T01:55:39.116Z,57.60
2023-02-18T01:56:57.390Z,60.20
2023-02-18T01:58:00.204Z,61.20
2023-02-18T01:59:06.003Z,62.30
2023-02-18T02:00:22.480Z,65.50
2023-02-18T02:01:27.353Z,54.20
2023-02-18T02:02:32.155Z,48.00
2023-02-18T02:03:34.467Z,58.50
2023-02-18T02:04:37.755Z,61.30
2023-02-18T02:05:40.232Z,57.80
2023-02-18T02:06:42.839Z,41.90
2023-02-18T02:07:47.146Z,37.70
2023-02-18T02:08:53.790Z,58.40
2023-02-18T02:09:59.049Z,59.20
2023-02-18T02:11:25.420Z,59.80
2023-02-18T02:12:49.147Z,58.80
2023-02-18T02:14:10.232Z,45.80
2023-02-18T02:15:34.361Z,61.10
2023-02-18T02:16:46.493Z,62.00
2023-02-18T02:17:55.634Z,55.60
2023-02-18T02:19:01.728Z,58.50
2023-02-18T02:20:08.559Z,63.60
2023-02-18T02:21:34.092Z,51.00
2023-02-18T02:23:02.526Z,55.20
2023-02-18T02:24:17.724Z,60.00
2023-02-18T02:25:23.710Z,63.40
2023-02-18T02:26:35.902Z,59.10
2023-02-18T02:28:03.344Z,57.80
2023-02-18T02:29:29.313Z,50.90
2023-02-18T02:31:08.095Z,54.40
2023-02-18T02:32:44.533Z,57.90
2023-02-18T02:33:57.177Z,61.10
2023-02-18T02:35:27.760Z,50.40
2023-02-18T02:36:39.952Z,62.80
2023-02-18T02:37:52.420Z,58.30
2023-02-18T02:40:35.721Z,57.30
2023-02-18T02:42:01.983Z,56.70
2023-02-18T02:43:43.799Z,53.20
2023-02-18T02:44:50.720Z,63.70
2023-02-18T02:46:05.771Z,60.18
2023-02-18T02:47:11.897Z,41.40
2023-02-18T02:48:19.282Z,58.00
2023-02-18T02:49:43.041Z,57.80
2023-02-18T02:50:49.007Z,57.50
2023-02-18T02:52:00.630Z,60.30
2023-02-18T02:53:08.400Z,52.10
2023-02-18T02:54:20.309Z,51.50
2023-02-18T02:55:22.942Z,55.80
2023-02-18T02:56:26.268Z,48.50
2023-02-18T02:57:33.384Z,51.60
2023-02-18T02:58:40.348Z,42.50
2023-02-18T02:59:48.213Z,58.80
2023-02-18T03:01:00.483Z,52.60
2023-02-18T03:02:11.253Z,53.30
2023-02-18T03:03:34.923Z,43.50
2023-02-18T03:04:54.471Z,48.10
2023-02-18T03:06:20.880Z,53.30
2023-02-18T03:07:30.961Z,51.50
2023-02-18T03:08:42.950Z,52.40
2023-02-18T03:10:21.004Z,47.30
2023-02-18T03:11:23.553Z,49.80
2023-02-18T03:12:29.444Z,51.30
2023-02-18T03:13:51.287Z,44.60
2023-02-18T03:16:37.612Z,44.80
2023-02-18T03:17:49.967Z,51.30
2023-02-18T03:18:59.013Z,52.20
2023-02-18T03:20:10.993Z,52.60
2023-02-18T03:21:22.804Z,53.00
2023-02-18T03:22:30.586Z,52.40
2023-02-18T03:23:37.215Z,54.50
2023-02-18T03:24:46.110Z,45.20
2023-02-18T03:25:51.132Z,49.30
2023-02-18T03:27:01.626Z,56.40
2023-02-18T03:28:13.444Z,50.10
2023-02-18T03:29:18.738Z,39.80
2023-02-18T03:30:26.242Z,52.10
2023-02-18T03:31:33.350Z,55.90
2023-02-18T03:32:36.948Z,53.60
2023-02-18T03:33:42.767Z,56.10
2023-02-18T03:34:49.628Z,49.20
2023-02-18T03:35:54.347Z,54.30
2023-02-18T03:37:00.022Z,53.20
2023-02-18T03:38:05.970Z,54.50
2023-02-18T03:39:14.963Z,38.20
2023-02-18T03:40:19.744Z,47.60
2023-02-18T03:41:22.621Z,54.40
2023-02-18T03:42:27.654Z,52.50
2023-02-18T03:43:30.194Z,45.50
2023-02-18T03:44:32.429Z,52.80
2023-02-18T03:45:34.884Z,43.80
2023-02-18T03:46:39.664Z,49.20
2023-02-18T03:47:42.017Z,52.90
2023-02-18T03:48:44.537Z,53.80
2023-02-18T03:49:46.775Z,49.10
2023-02-18T03:50:49.109Z,38.30
2023-02-18T03:51:51.558Z,46.30
2023-02-18T03:52:54.215Z,55.40
2023-02-18T03:53:56.467Z,49.20
2023-02-18T03:54:59.639Z,50.80
2023-02-18T03:56:02.077Z,45.80
2023-02-18T03:57:04.211Z,52.90
2023-02-18T03:58:06.593Z,50.50
2023-02-18T03:59:09.290Z,50.80
2023-02-18T04:00:12.952Z,41.60
2023-02-18T04:01:21.681Z,52.40
2023-02-18T04:02:24.529Z,37.30
2023-02-18T04:03:26.975Z,30.70
2023-02-18T04:04:29.456Z,41.50
2023-02-18T04:05:31.895Z,51.00
2023-02-18T04:06:34.349Z,54.00
2023-02-18T04:07:36.890Z,41.40
2023-02-18T04:08:39.329Z,50.00
2023-02-18T04:09:41.764Z,52.10
2023-02-18T04:10:44.120Z,45.90
2023-02-18T04:11:47.105Z,48.40
2023-02-18T04:12:49.642Z,49.82
2023-02-18T04:13:52.497Z,40.70
2023-02-18T04:14:54.921Z,54.64
2023-02-18T04:15:57.663Z,40.90
2023-02-18T04:17:00.906Z,46.30
2023-02-18T04:18:03.384Z,48.50
2023-02-18T04:19:05.848Z,47.50
2023-02-18T04:20:09.580Z,49.70
2023-02-18T04:21:12.201Z,41.60
2023-02-18T04:22:14.562Z,43.10
2023-02-18T04:23:16.866Z,43.60
2023-02-18T04:24:19.627Z,47.70
2023-02-18T04:25:22.153Z,41.82
2023-02-18T04:26:24.534Z,44.50
2023-02-18T04:27:26.874Z,49.00
2023-02-18T04:28:29.242Z,43.00
2023-02-18T04:29:31.499Z,42.50
2023-02-18T04:30:34.037Z,50.20
2023-02-18T04:31:36.508Z,43.10
2023-02-18T04:32:39.011Z,32.90
2023-02-18T04:33:41.305Z,43.30
2023-02-18T04:34:43.804Z,42.70
2023-02-18T04:35:46.166Z,46.10
2023-02-18T04:36:49.039Z,45.30
2023-02-18T04:37:51.426Z,44.70
2023-02-18T04:38:53.847Z,46.80
2023-02-18T04:39:56.821Z,39.00
2023-02-18T04:41:00.033Z,51.00
2023-02-18T04:42:04.337Z,44.73
2023-02-18T04:43:06.808Z,43.20
2023-02-18T04:44:09.159Z,46.90
2023-02-18T04:45:11.781Z,43.60
2023-02-18T04:46:14.342Z,46.50
2023-02-18T04:47:16.704Z,45.50
2023-02-18T04:48:20.015Z,40.00
2023-02-18T04:49:22.384Z,49.30
2023-02-18T04:50:25.029Z,44.90
2023-02-18T04:51:27.916Z,40.80
2023-02-18T04:52:30.753Z,48.80
2023-02-18T04:53:33.223Z,39.00
2023-02-18T04:54:36.385Z,45.00
2023-02-18T04:55:39.214Z,49.36
2023-02-18T04:56:41.440Z,52.70
2023-02-18T04:57:43.698Z,39.20
2023-02-18T04:58:46.312Z,43.00
2023-02-18T04:59:48.665Z,43.40
2023-02-18T05:00:52.735Z,35.50
2023-02-18T05:01:55.183Z,42.60
2023-02-18T05:02:58.520Z,40.10
2023-02-18T05:04:00.869Z,37.20
2023-02-18T05:05:03.148Z,21.70
2023-02-18T05:06:06.380Z,45.80
2023-02-18T05:07:09.048Z,42.60
2023-02-18T05:08:12.587Z,47.70
2023-02-18T05:09:15.371Z,31.40
2023-02-18T05:10:19.191Z,40.80
2023-02-18T05:11:21.514Z,35.10
2023-02-18T05:12:23.864Z,37.50
2023-02-18T05:13:26.618Z,40.80
2023-02-18T05:14:28.907Z,30.10
2023-02-18T05:15:31.145Z,45.00
2023-02-18T05:16:34.446Z,26.80
2023-02-18T05:17:36.765Z,38.40
2023-02-18T05:18:39.387Z,42.60
2023-02-18T05:19:41.655Z,42.10
2023-02-18T05:20:45.031Z,41.50
2023-02-18T05:21:47.369Z,47.36
2023-02-18T05:22:49.506Z,36.60
2023-02-18T05:23:51.696Z,40.22
2023-02-18T05:24:53.917Z,44.11
2023-02-18T05:25:56.845Z,44.40
2023-02-18T05:26:59.340Z,40.55
2023-02-18T05:28:02.536Z,35.30
2023-02-18T05:29:05.355Z,42.90
2023-02-18T05:30:08.756Z,42.50
2023-02-18T05:31:11.253Z,36.80
2023-02-18T05:32:13.678Z,42.40
2023-02-18T05:33:16.134Z,31.90
2023-02-18T05:34:18.653Z,41.40
2023-02-18T05:35:21.998Z,33.40
2023-02-18T05:36:24.647Z,41.40
2023-02-18T05:37:26.993Z,47.80
2023-02-18T05:38:29.243Z,43.90
2023-02-18T05:39:31.719Z,38.80
2023-02-18T05:40:34.016Z,39.90
2023-02-18T05:41:36.273Z,41.00
2023-02-18T05:42:38.678Z,41.30
2023-02-18T05:43:59.474Z,40.70
2023-02-18T05:45:01.963Z,32.90
2023-02-18T05:46:06.304Z,44.30
2023-02-18T05:47:12.112Z,40.10
2023-02-18T05:48:14.497Z,38.80
2023-02-18T05:49:16.758Z,39.60
2023-02-18T05:50:19.592Z,38.80
2023-02-18T05:51:21.948Z,33.20
2023-02-18T05:52:24.316Z,38.60
2023-02-18T05:53:26.588Z,42.00
2023-02-18T05:54:29.275Z,42.20
2023-02-18T05:55:33.714Z,34.20
2023-02-18T05:56:36.398Z,43.60
2023-02-18T05:57:38.748Z,43.80
2023-02-18T05:58:41.145Z,34.30
2023-02-18T05:59:43.376Z,44.50
2023-02-18T06:00:45.851Z,39.10
2023-02-18T06:01:49.018Z,38.10
2023-02-18T06:02:51.410Z,41.10
2023-02-18T06:03:54.415Z,29.50
2023-02-18T06:04:59.715Z,37.50
2023-02-18T06:06:02.205Z,43.30
2023-02-18T06:07:05.037Z,36.50
2023-02-18T06:08:07.990Z,43.00
2023-02-18T06:09:10.431Z,46.73
2023-02-18T06:10:13.101Z,51.00
2023-02-18T06:11:15.529Z,51.90
2023-02-18T06:12:17.759Z,50.10
2023-02-18T06:13:21.351Z,45.00
2023-02-18T06:14:23.788Z,45.90
2023-02-18T06:15:26.651Z,43.10
2023-02-18T06:16:29.328Z,45.27
2023-02-18T06:17:31.675Z,42.10
2023-02-18T06:18:34.828Z,44.44
2023-02-18T06:19:38.450Z,46.80
2023-02-18T06:20:41.313Z,48.90
2023-02-18T06:21:49.070Z,29.60
2023-02-18T06:22:51.334Z,52.70
2023-02-18T06:23:53.804Z,41.10
2023-02-18T06:24:56.073Z,48.80
2023-02-18T06:25:59.515Z,46.50
2023-02-18T06:27:02.316Z,37.30
2023-02-18T06:28:04.872Z,41.00
2023-02-18T06:29:08.318Z,47.40
2023-02-18T06:30:11.633Z,49.30
2023-02-18T06:31:14.128Z,42.82
2023-02-18T06:32:17.024Z,49.80
2023-02-18T06:33:19.998Z,44.73
2023-02-18T06:34:23.416Z,49.27
2023-02-18T06:35:26.585Z,50.10
2023-02-18T06:36:33.831Z,50.50
2023-02-18T06:37:38.057Z,47.30
2023-02-18T06:38:42.401Z,47.70
2023-02-18T06:39:46.620Z,50.10
2023-02-18T06:40:54.392Z,50.00
2023-02-18T06:41:56.628Z,46.30
2023-02-18T06:42:59.462Z,52.50
2023-02-18T06:44:02.719Z,37.60
2023-02-18T06:45:06.282Z,46.80
2023-02-18T06:46:14.089Z,42.10
2023-02-18T06:47:19.987Z,47.40
2023-02-18T06:48:23.106Z,46.50
2023-02-18T06:49:27.494Z,37.30
2023-02-18T06:50:29.915Z,37.90
2023-02-18T06:51:32.308Z,46.30
2023-02-18T06:52:34.777Z,42.10
2023-02-18T06:53:39.280Z,39.10
2023-02-18T06:54:41.787Z,40.70
2023-02-18T06:55:45.233Z,41.60
2023-02-18T06:56:47.825Z,46.90
2023-02-18T06:57:51.208Z,40.10
2023-02-18T06:58:54.255Z,41.30
2023-02-18T06:59:57.138Z,40.45
2023-02-18T07:00:59.729Z,36.45
2023-02-18T07:02:02.079Z,32.90
2023-02-18T07:03:05.665Z,36.00
2023-02-18T07:04:08.207Z,42.20
2023-02-18T07:05:11.040Z,41.30
2023-02-18T07:06:13.716Z,41.30
2023-02-18T07:07:16.113Z,48.90
2023-02-18T07:08:19.148Z,36.20
2023-02-18T07:09:21.466Z,41.00
2023-02-18T07:10:24.582Z,38.90
2023-02-18T07:11:27.519Z,36.80
2023-02-18T07:12:30.114Z,34.09
2023-02-18T07:13:32.574Z,39.00
2023-02-18T07:14:34.742Z,47.30
2023-02-18T07:15:37.394Z,43.30
2023-02-18T07:16:41.052Z,31.30
2023-02-18T07:17:43.956Z,43.60
2023-02-18T07:18:46.668Z,50.73
2023-02-18T07:19:49.013Z,60.90
2023-02-18T07:20:52.679Z,51.30
2023-02-18T07:21:57.420Z,33.20
2023-02-18T07:23:00.858Z,47.50
2023-02-18T07:24:03.811Z,40.20
2023-02-18T07:25:06.910Z,38.90
2023-02-18T07:26:13.348Z,32.00
2023-02-18T07:27:15.655Z,21.40
2023-02-18T07:28:18.019Z,30.70
2023-02-18T07:29:21.449Z,27.30
2023-02-18T07:30:25.065Z,37.50
2023-02-18T07:31:27.609Z,40.90
2023-02-18T07:32:29.897Z,31.80
2023-02-18T07:33:32.284Z,29.70
2023-02-18T07:34:35.662Z,33.10
2023-02-18T07:35:38.072Z,16.00
2023-02-18T07:36:40.618Z,23.50
2023-02-18T07:37:50.426Z,30.90
2023-02-18T07:38:53.759Z,27.90
2023-02-18T07:39:56.113Z,17.90
2023-02-18T07:40:58.920Z,18.80
2023-02-18T07:42:03.140Z,15.30
2023-02-18T07:43:07.501Z,25.40
2023-02-18T07:44:09.947Z,14.27
2023-02-18T07:45:13.158Z,13.50
2023-02-18T07:46:17.005Z,12.90
2023-02-18T07:47:19.392Z,12.80
2023-02-18T07:48:21.739Z,9.10
2023-02-18T07:49:24.971Z,13.80
2023-02-18T07:50:29.208Z,15.00
2023-02-18T07:51:34.048Z,9.10
2023-02-18T07:52:36.649Z,15.60
2023-02-18T07:53:39.281Z,5.80
2023-02-18T07:54:41.837Z,8.20
2023-02-18T07:55:50.453Z,8.80
2023-02-18T07:56:54.243Z,8.50
2023-02-18T07:58:02.105Z,13.50
2023-02-18T07:59:04.649Z,7.40
2023-02-18T08:00:09.376Z,18.50
2023-02-18T08:01:16.635Z,23.20
2023-02-18T08:02:21.707Z,12.30
2023-02-18T08:03:27.488Z,14.50
2023-02-18T08:04:30.126Z,16.90
2023-02-18T08:05:32.523Z,13.00
2023-02-18T08:06:38.165Z,10.40
2023-02-18T08:07:42.859Z,10.40
2023-02-18T08:08:45.103Z,10.70
2023-02-18T08:09:49.347Z,6.90
2023-02-18T08:10:54.952Z,10.60
2023-02-18T08:11:57.954Z,12.10
2023-02-18T08:13:04.071Z,8.30
2023-02-18T08:14:07.651Z,6.10
2023-02-18T08:15:10.287Z,9.80
2023-02-18T08:16:14.127Z,8.80
2023-02-18T08:17:18.032Z,6.80
2023-02-18T08:18:22.786Z,5.60
2023-02-18T08:19:25.122Z,8.50
2023-02-18T08:20:30.493Z,6.20
2023-02-18T08:21:32.833Z,5.40
2023-02-18T08:22:36.122Z,8.20
2023-02-18T08:23:38.603Z,5.20
2023-02-18T08:24:40.939Z,5.90
2023-02-18T08:25:50.044Z,11.80
2023-02-18T08:27:00.243Z,5.70
2023-02-18T08:27:56.484Z,9.90
2023-02-18T08:29:01.155Z,4.80
2023-02-18T08:30:04.434Z,9.60
2023-02-18T08:31:07.410Z,7.90
2023-02-18T08:32:09.976Z,13.90
2023-02-18T08:33:12.765Z,9.30
2023-02-18T08:34:15.351Z,3.45
2023-02-18T08:35:17.919Z,6.20
2023-02-18T08:36:22.784Z,7.00
2023-02-18T08:37:25.055Z,3.60
2023-02-18T08:38:27.414Z,5.70
2023-02-18T08:39:35.100Z,9.90
2023-02-18T08:40:37.673Z,3.70
2023-02-18T08:41:39.799Z,3.10
2023-02-18T08:42:42.106Z,4.30
2023-02-18T08:43:45.308Z,3.90
2023-02-18T08:44:49.157Z,2.00
2023-02-18T08:45:51.762Z,3.60
2023-02-18T08:46:54.530Z,2.90
2023-02-18T08:48:17.855Z,4.40
2023-02-18T08:49:00.973Z,4.30
2023-02-18T08:50:05.031Z,2.20
2023-02-18T08:51:16.946Z,3.40
2023-02-18T08:52:19.730Z,4.40
2023-02-18T08:53:22.780Z,1.40
2023-02-18T08:54:26.114Z,6.00
2023-02-18T08:55:32.061Z,1.10
2023-02-18T08:56:34.778Z,7.50
2023-02-18T08:57:39.050Z,7.20
2023-02-18T08:58:42.105Z,5.00
2023-02-18T08:59:48.492Z,5.20
2023-02-18T09:00:57.571Z,3.30
2023-02-18T09:02:01.547Z,3.00
2023-02-18T09:03:06.484Z,3.40
2023-02-18T09:04:09.410Z,3.00
2023-02-18T09:05:12.403Z,5.50
2023-02-18T09:06:16.080Z,0.90
2023-02-18T09:07:18.563Z,0.40
2023-02-18T09:08:21.498Z,3.30
2023-02-18T09:09:24.650Z,3.91
2023-02-18T09:10:27.181Z,1.50
2023-02-18T09:11:29.565Z,3.70
2023-02-18T09:12:32.183Z,6.90
2023-02-18T09:13:36.457Z,7.40
2023-02-18T09:14:41.841Z,4.70
2023-02-18T09:15:44.589Z,8.50
2023-02-18T09:16:47.366Z,5.30
2023-02-18T09:17:50.834Z,5.50
2023-02-18T09:18:53.243Z,2.30
2023-02-18T09:19:55.810Z,3.00
2023-02-18T09:21:01.169Z,3.60
2023-02-18T09:22:03.447Z,8.40
2023-02-18T09:23:06.939Z,5.90
2023-02-18T09:24:11.933Z,5.90
2023-02-18T09:25:14.455Z,6.10
2023-02-18T09:26:24.488Z,4.00
2023-02-18T09:27:27.664Z,5.10
2023-02-18T09:28:31.965Z,9.30
2023-02-18T09:29:37.703Z,5.40
2023-02-18T09:30:40.275Z,5.80
2023-02-18T09:31:43.458Z,13.00
2023-02-18T09:32:45.957Z,8.90
2023-02-18T09:33:51.176Z,11.60
2023-02-18T09:34:53.494Z,11.50
2023-02-18T09:35:55.821Z,11.20
2023-02-18T09:36:58.257Z,5.90
2023-02-18T09:38:00.600Z,5.40
2023-02-18T09:39:03.528Z,6.50
2023-02-18T09:40:07.378Z,6.36
2023-02-18T09:41:16.185Z,4.30
2023-02-18T09:42:21.999Z,4.70
2023-02-18T09:43:32.191Z,8.60
2023-02-18T09:44:44.944Z,13.10
2023-02-18T09:45:47.328Z,7.90
2023-02-18T09:47:05.247Z,8.60
2023-02-18T09:48:09.897Z,8.60
2023-02-18T09:49:16.841Z,6.10
2023-02-18T09:50:30.225Z,5.50
2023-02-18T09:51:32.902Z,5.90
2023-02-18T09:52:38.040Z,6.10
2023-02-18T09:53:44.133Z,6.90
2023-02-18T09:54:49.133Z,5.90
2023-02-18T09:55:58.882Z,4.20
2023-02-18T09:57:03.996Z,8.50
2023-02-18T09:58:21.693Z,6.00
2023-02-18T09:59:26.197Z,2.00
2023-02-18T10:00:36.236Z,3.60
2023-02-18T10:01:43.788Z,5.10
2023-02-18T10:02:50.258Z,6.70
2023-02-18T10:03:59.924Z,8.40
2023-02-18T10:05:04.664Z,3.80
2023-02-18T10:06:11.700Z,5.00
2023-02-18T10:07:28.510Z,6.10
2023-02-18T10:08:47.353Z,4.80
2023-02-18T10:09:52.203Z,3.00
2023-02-18T10:10:55.175Z,5.60
2023-02-18T10:12:13.537Z,6.60
2023-02-18T10:13:19.040Z,3.70
2023-02-18T10:14:21.449Z,7.00
2023-02-18T10:15:27.322Z,12.70
2023-02-18T10:16:30.504Z,4.20
2023-02-18T10:17:33.585Z,3.00
2023-02-18T10:18:40.165Z,10.50
2023-02-18T10:19:45.677Z,4.90
2023-02-18T10:20:52.528Z,5.90
2023-02-18T10:21:55.788Z,4.00
2023-02-18T10:23:02.422Z,2.20
2023-02-18T10:25:45.933Z,6.50
2023-02-18T10:26:50.381Z,6.80
2023-02-18T10:27:54.261Z,2.00
2023-02-18T10:28:58.096Z,6.60
2023-02-18T10:30:16.502Z,6.60
2023-02-18T10:32:41.329Z,8.40
2023-02-18T10:33:47.610Z,6.20
2023-02-18T10:35:19.176Z,5.10
2023-02-18T10:40:31.472Z,10.20
2023-02-18T10:41:52.546Z,8.50
2023-02-18T10:43:13.033Z,6.50
2023-02-18T10:44:25.054Z,4.60
2023-02-18T10:45:34.340Z,3.50
2023-02-18T10:46:49.985Z,6.20
2023-02-18T10:48:18.794Z,2.00
2023-02-18T10:49:57.397Z,4.80
2023-02-18T10:52:20.953Z,4.50
2023-02-18T10:53:35.472Z,2.50
2023-02-18T10:55:00.518Z,6.40
2023-02-18T10:56:04.542Z,7.70
2023-02-18T10:57:11.565Z,7.40
2023-02-18T10:58:29.557Z,7.80
2023-02-18T10:59:33.455Z,3.60
2023-02-18T11:00:39.899Z,5.70
2023-02-18T11:01:44.894Z,6.60
2023-02-18T11:03:08.662Z,2.90
2023-02-18T11:04:16.517Z,6.90
2023-02-18T11:05:27.406Z,3.30
2023-02-18T11:06:33.588Z,4.60
2023-02-18T11:07:39.538Z,4.00
2023-02-18T11:08:45.956Z,4.00
2023-02-18T11:09:52.225Z,6.50
2023-02-18T11:10:56.091Z,2.20
2023-02-18T11:12:08.199Z,4.30
2023-02-18T11:13:10.767Z,1.60
2023-02-18T11:14:16.708Z,5.30
2023-02-18T11:15:25.467Z,5.09
2023-02-18T11:16:41.588Z,6.40
2023-02-18T11:17:49.157Z,7.40
2023-02-18T11:18:56.247Z,5.10
2023-02-18T11:20:02.081Z,4.60
2023-02-18T11:21:08.554Z,1.20
2023-02-18T11:22:18.892Z,2.30
2023-02-18T11:23:22.738Z,1.80
2023-02-18T11:24:25.218Z,3.30
2023-02-18T11:25:32.918Z,3.00
2023-02-18T11:26:38.264Z,5.00
2023-02-18T11:27:50.049Z,1.90
2023-02-18T11:28:56.071Z,3.80
2023-02-18T11:30:03.512Z,2.80
2023-02-18T11:31:06.437Z,6.10
2023-02-18T11:32:13.522Z,3.80
2023-02-18T11:33:23.250Z,4.70
2023-02-18T11:34:30.195Z,1.80
2023-02-18T11:35:33.703Z,2.40
2023-02-18T11:36:38.087Z,4.70
2023-02-18T11:37:40.881Z,3.70
2023-02-18T11:38:50.470Z,4.00
2023-02-18T11:39:55.693Z,3.30
2023-02-18T11:41:10.591Z,4.10
2023-02-18T11:42:15.723Z,1.80
2023-02-18T11:43:21.002Z,4.40
2023-02-18T11:44:29.892Z,3.80
2023-02-18T11:45:34.533Z,3.70
2023-02-18T11:46:37.284Z,2.60
2023-02-18T11:47:41.162Z,5.50
2023-02-18T11:48:44.810Z,5.80
2023-02-18T11:49:59.766Z,5.70
2023-02-18T11:51:06.802Z,5.50
2023-02-18T11:52:21.995Z,7.00
2023-02-18T11:53:34.146Z,7.50
2023-02-18T11:54:37.018Z,4.60
2023-02-18T11:55:43.510Z,2.80
2023-02-18T11:56:53.986Z,5.10
2023-02-18T11:58:01.320Z,5.70
2023-02-18T11:59:04.607Z,0.00
2023-02-18T12:00:17.200Z,5.50
2023-02-18T12:01:39.483Z,4.80
2023-02-18T12:02:43.154Z,3.80
2023-02-18T12:03:59.446Z,2.80
2023-02-18T12:06:32.698Z,4.40
2023-02-18T12:07:53.708Z,2.30
2023-02-18T12:09:02.584Z,4.80
2023-02-18T12:11:47.105Z,2.80
2023-02-18T12:13:06.166Z,2.10
2023-02-18T12:14:16.483Z,2.30
2023-02-18T12:15:23.584Z,3.90
2023-02-18T12:16:33.430Z,2.80
2023-02-18T12:17:56.895Z,2.30
2023-02-18T12:19:15.992Z,5.60
2023-02-18T12:20:47.426Z,1.80
2023-02-18T12:22:02.282Z,1.70
2023-02-18T12:23:14.702Z,2.80
2023-02-18T12:24:36.998Z,2.00
2023-02-18T12:26:07.179Z,2.70
2023-02-18T12:27:39.385Z,4.50
2023-02-18T12:28:54.505Z,6.70
2023-02-18T12:30:22.176Z,2.20
2023-02-18T12:31:47.089Z,1.90
2023-02-18T12:33:00.180Z,3.80
2023-02-18T12:34:15.752Z,2.20
2023-02-18T12:35:40.556Z,4.10
2023-02-18T12:37:10.017Z,5.70
2023-02-18T12:38:22.138Z,5.40
2023-02-18T12:39:29.446Z,5.30
2023-02-18T12:40:54.042Z,4.20
2023-02-18T12:42:19.921Z,10.40
2023-02-18T12:43:27.098Z,7.60
2023-02-18T12:44:55.353Z,5.00
2023-02-18T12:46:19.363Z,1.90
2023-02-18T12:47:44.613Z,4.70
2023-02-18T12:48:56.280Z,6.80
2023-02-18T12:50:13.745Z,4.20
2023-02-18T12:51:30.464Z,2.50
2023-02-18T12:52:59.243Z,5.70
2023-02-18T12:54:24.792Z,4.70
2023-02-18T12:55:35.864Z,3.50
2023-02-18T12:56:58.025Z,4.20
2023-02-18T12:58:13.908Z,7.50
2023-02-18T12:59:41.604Z,4.20
2023-02-18T13:01:04.366Z,1.00
2023-02-18T13:02:34.070Z,6.10
2023-02-18T13:04:16.395Z,2.60
2023-02-18T13:05:39.538Z,1.20
2023-02-18T13:07:06.552Z,1.60
2023-02-18T13:08:16.071Z,2.30
2023-02-18T13:09:54.503Z,4.70
2023-02-18T13:11:03.604Z,8.10
2023-02-18T13:12:24.884Z,3.60
2023-02-18T13:13:37.122Z,2.00
2023-02-18T13:14:56.715Z,6.40
2023-02-18T13:16:12.010Z,7.10
2023-02-18T13:17:18.578Z,1.80
2023-02-18T13:18:30.726Z,4.90
2023-02-18T13:19:46.266Z,2.00
2023-02-18T13:20:55.669Z,9.30
2023-02-18T13:22:02.681Z,6.40
2023-02-18T13:23:05.869Z,4.90
2023-02-18T13:24:12.533Z,1.70
2023-02-18T13:25:16.556Z,2.80
2023-02-18T13:26:20.831Z,6.70
2023-02-18T13:27:44.514Z,9.30
2023-02-18T13:29:09.122Z,6.30
2023-02-18T13:30:20.017Z,5.90
2023-02-18T13:31:26.046Z,2.40
2023-02-18T13:32:45.556Z,8.30
2023-02-18T13:33:57.798Z,6.60
2023-02-18T13:35:07.688Z,8.10
2023-02-18T13:36:23.745Z,4.20
2023-02-18T13:38:02.553Z,6.40
2023-02-18T13:39:11.563Z,4.50
2023-02-18T13:40:21.795Z,5.60
2023-02-18T13:41:29.536Z,2.70
2023-02-18T13:42:35.606Z,6.10
2023-02-18T13:43:40.306Z,6.30
2023-02-18T13:44:59.168Z,3.00
2023-02-18T13:46:11.389Z,3.20
2023-02-18T13:48:52.846Z,1.50
2023-02-18T13:49:55.960Z,4.80
2023-02-18T13:51:07.048Z,4.64
2023-02-18T13:52:13.296Z,4.10
2023-02-18T13:53:19.575Z,5.40
2023-02-18T13:54:44.404Z,4.10
2023-02-18T13:55:53.846Z,4.00
2023-02-18T13:58:42.715Z,3.40
2023-02-18T13:59:48.708Z,6.50
2023-02-18T14:00:56.371Z,4.70
2023-02-18T14:02:19.640Z,2.30
2023-02-18T14:03:46.272Z,2.30
2023-02-18T14:04:54.873Z,2.20
2023-02-18T14:05:57.650Z,2.60
2023-02-18T14:07:24.590Z,4.27
2023-02-18T14:08:38.445Z,2.60
2023-02-18T14:09:44.070Z,3.60
2023-02-18T14:11:14.655Z,8.00
2023-02-18T14:12:40.223Z,5.50
2023-02-18T14:13:51.026Z,5.10
2023-02-18T14:14:54.531Z,2.80
2023-02-18T14:16:04.542Z,2.60
2023-02-18T14:17:19.816Z,1.50
2023-02-18T14:18:28.304Z,1.20
2023-02-18T14:19:31.505Z,6.50
2023-02-18T14:20:41.561Z,5.20
2023-02-18T14:21:44.054Z,8.30
2023-02-18T14:22:50.479Z,2.70
2023-02-18T14:23:57.212Z,3.00
2023-02-18T14:25:06.088Z,2.20
2023-02-18T14:26:16.360Z,5.00
2023-02-18T14:27:21.174Z,2.00
2023-02-18T14:28:38.992Z,1.50
2023-02-18T14:29:42.392Z,3.20
2023-02-18T14:30:44.861Z,3.90
2023-02-18T14:31:57.087Z,2.50
2023-02-18T14:33:01.317Z,2.10
2023-02-18T14:34:16.361Z,1.80
2023-02-18T14:35:40.309Z,1.40
2023-02-18T14:37:03.208Z,3.30
2023-02-18T14:38:31.685Z,2.00
2023-02-18T14:39:53.218Z,5.30
2023-02-18T14:41:08.113Z,3.60
2023-02-18T14:42:30.054Z,3.00
2023-02-18T14:43:52.895Z,3.00
2023-02-18T14:45:18.735Z,2.00
2023-02-18T14:46:59.902Z,4.80
2023-02-18T14:48:22.117Z,3.60
2023-02-18T14:49:40.310Z,4.00
2023-02-18T14:50:49.426Z,4.50
2023-02-18T14:51:55.192Z,4.20
2023-02-18T14:53:00.886Z,2.20
2023-02-18T14:54:09.858Z,6.70
2023-02-18T14:55:16.861Z,2.00
2023-02-18T14:56:22.070Z,3.40